Main page
METAR-TAF:

METAR-TAF

Airports :

Oak Ridge, Tennessee, United States

latitude: 36-01-22N, longitude: 084-14W, elevation: 915 ft

Current weather observation

The report was made 18 minutes ago, at 21:53 UTC
Wind 3 mph from variable directions
Temperature 37°F
Humidity 87%
Pressure 30.37 in. Hg
Visibility: 10 miles
Broken clouds at a height of 6500 ft
Overcast at a height of 8000 ft

METAR: KOQT 202153Z AUTO VRB03KT 10SM BKN065 OVC080 03/01 A3037 RMK AO2 SLP295 T00330006

Time: 17:11 (22:11 UTC)


TAF: missing

Weather observations and forecasts of more than 4000 airports (METAR and TAF reports).

The available stations are represented by yellow and red dots on the map.

Hover mouse over dot to see the name of the station.

Then click to see weather observations and forecasts.

To change the map : click on the green buttons with a black cross to zoom in, on the green button with a dash to zoom out, or on the green arrows for adjacent maps.


METAR-TAF: